createdAt,value
2023-10-20T00:01:59.307Z,67.60
2023-10-20T00:04:46.494Z,67.10
2023-10-20T00:07:33.822Z,65.70
2023-10-20T00:10:20.704Z,65.90
2023-10-20T00:13:07.921Z,65.90
2023-10-20T00:15:54.908Z,62.50
2023-10-20T00:18:41.723Z,48.50
2023-10-20T00:21:30.655Z,57.00
2023-10-20T00:24:17.867Z,52.90
2023-10-20T00:27:05.287Z,53.70
2023-10-20T00:29:52.849Z,60.50
2023-10-20T00:32:42.707Z,55.50
2023-10-20T00:35:30.814Z,60.10
2023-10-20T00:38:18.473Z,51.20
2023-10-20T00:41:05.921Z,58.00
2023-10-20T00:43:54.388Z,59.40
2023-10-20T00:46:46.537Z,61.40
2023-10-20T00:49:34.472Z,56.70
2023-10-20T00:52:22.698Z,49.40
2023-10-20T00:55:10.251Z,55.80
2023-10-20T00:57:58.379Z,54.00
2023-10-20T01:04:14.083Z,52.30
2023-10-20T01:07:01.899Z,54.20
2023-10-20T01:09:49.741Z,59.30
2023-10-20T01:12:37.135Z,57.20
2023-10-20T01:15:25.301Z,55.10
2023-10-20T01:18:13.126Z,56.40
2023-10-20T01:21:00.895Z,58.10
2023-10-20T01:23:47.969Z,52.80
2023-10-20T01:26:35.523Z,50.80
2023-10-20T01:29:26.569Z,53.80
2023-10-20T01:32:14.757Z,55.70
2023-10-20T01:35:02.245Z,51.20
2023-10-20T01:37:49.591Z,56.90
2023-10-20T01:40:36.740Z,52.50
2023-10-20T01:43:24.622Z,52.10
2023-10-20T01:46:11.410Z,53.30
2023-10-20T01:48:58.892Z,51.70
2023-10-20T01:51:46.585Z,52.50
2023-10-20T01:54:34.834Z,53.50
2023-10-20T01:57:22.521Z,48.10
2023-10-20T02:00:14.682Z,57.70
2023-10-20T02:03:02.854Z,55.20
2023-10-20T02:05:49.615Z,53.40
2023-10-20T02:08:38.959Z,52.70
2023-10-20T02:11:26.380Z,53.40
2023-10-20T02:14:14.041Z,57.00
2023-10-20T02:17:01.082Z,54.70
2023-10-20T02:19:48.958Z,58.50
2023-10-20T02:22:35.680Z,49.00
2023-10-20T02:25:23.480Z,53.70
2023-10-20T02:28:10.957Z,53.20
2023-10-20T02:30:58.712Z,50.40
2023-10-20T02:33:45.766Z,49.00
2023-10-20T02:36:35.649Z,47.40
2023-10-20T02:39:23.340Z,50.80
2023-10-20T02:42:11.225Z,45.70
2023-10-20T02:44:59.249Z,46.60
2023-10-20T02:47:46.502Z,48.30
2023-10-20T02:50:34.312Z,44.10
2023-10-20T02:53:21.774Z,43.90
2023-10-20T02:56:13.720Z,45.80
2023-10-20T02:59:00.664Z,45.40
2023-10-20T03:01:47.551Z,43.50
2023-10-20T03:04:35.604Z,46.50
2023-10-20T03:07:26.135Z,46.60
2023-10-20T03:10:13.752Z,46.90
2023-10-20T03:13:00.629Z,42.60
2023-10-20T03:15:47.781Z,45.70
2023-10-20T03:18:34.805Z,45.50
2023-10-20T03:21:22.970Z,50.90
2023-10-20T03:24:10.692Z,44.60
2023-10-20T03:26:59.674Z,47.70
2023-10-20T03:29:49.106Z,48.90
2023-10-20T03:32:37.641Z,47.80
2023-10-20T03:35:24.554Z,43.50
2023-10-20T03:38:11.720Z,39.60
2023-10-20T03:41:07.312Z,42.70
2023-10-20T03:43:55.081Z,43.20
2023-10-20T03:46:49.977Z,47.10
2023-10-20T03:49:37.067Z,47.10
2023-10-20T03:52:24.717Z,46.70
2023-10-20T03:55:14.864Z,41.60
2023-10-20T03:58:02.432Z,45.20
2023-10-20T04:00:53.625Z,48.20
2023-10-20T04:03:42.378Z,50.30
2023-10-20T04:06:29.858Z,67.30
2023-10-20T04:09:19.274Z,51.50
2023-10-20T04:12:06.366Z,46.10
2023-10-20T04:14:56.660Z,44.70
2023-10-20T04:17:44.960Z,44.40
2023-10-20T04:20:38.923Z,43.90
2023-10-20T04:23:27.557Z,43.00
2023-10-20T04:26:22.741Z,42.40
2023-10-20T04:29:13.558Z,41.80
2023-10-20T04:32:20.355Z,43.80
2023-10-20T04:35:25.936Z,28.90
2023-10-20T04:38:32.495Z,42.50
2023-10-20T04:41:38.161Z,40.40
2023-10-20T04:44:25.693Z,39.00
2023-10-20T04:47:31.722Z,44.70
2023-10-20T04:50:37.636Z,42.80
2023-10-20T04:53:41.929Z,42.40
2023-10-20T04:57:00.103Z,47.40
2023-10-20T04:59:48.084Z,45.10
2023-10-20T05:02:40.464Z,43.20
2023-10-20T05:05:28.127Z,41.70
2023-10-20T05:08:18.730Z,61.40
2023-10-20T05:11:06.737Z,61.20
2023-10-20T05:13:54.723Z,46.60
2023-10-20T05:16:42.750Z,66.10
2023-10-20T05:19:34.008Z,104.30
2023-10-20T05:22:21.516Z,86.50
2023-10-20T05:25:10.060Z,87.80
2023-10-20T05:27:57.615Z,59.80
2023-10-20T05:30:47.676Z,58.20
2023-10-20T05:33:35.550Z,50.70
2023-10-20T05:36:22.863Z,77.00
2023-10-20T05:39:10.908Z,103.10
2023-10-20T05:41:58.727Z,81.00
2023-10-20T05:44:49.700Z,65.40
2023-10-20T05:47:37.804Z,72.40
2023-10-20T05:50:25.772Z,65.10
2023-10-20T05:53:12.912Z,52.70
2023-10-20T05:56:00.021Z,58.90
2023-10-20T05:58:47.672Z,43.30
2023-10-20T06:01:35.628Z,49.00
2023-10-20T06:04:22.750Z,48.90
2023-10-20T06:07:10.439Z,41.70
2023-10-20T06:09:57.936Z,40.20
2023-10-20T06:12:45.700Z,47.30
2023-10-20T06:15:33.476Z,37.90
2023-10-20T06:18:32.709Z,36.40
2023-10-20T06:21:23.915Z,47.60
2023-10-20T06:24:11.923Z,47.60
2023-10-20T06:27:04.094Z,47.50
2023-10-20T06:30:07.082Z,43.40
2023-10-20T06:32:58.191Z,44.20
2023-10-20T06:35:52.600Z,38.30
2023-10-20T06:38:45.644Z,35.50
2023-10-20T06:41:33.435Z,49.60
2023-10-20T06:44:21.007Z,37.90
2023-10-20T06:47:08.683Z,38.60
2023-10-20T06:49:55.907Z,35.10
2023-10-20T06:52:43.937Z,30.40
2023-10-20T06:55:59.226Z,27.30
2023-10-20T06:58:39.297Z,54.40
2023-10-20T07:01:28.225Z,49.80
2023-10-20T07:04:15.957Z,32.00
2023-10-20T07:07:03.713Z,56.30
2023-10-20T07:09:50.799Z,52.00
2023-10-20T07:12:39.092Z,41.30
2023-10-20T07:15:26.867Z,34.70
2023-10-20T07:18:14.290Z,33.10
2023-10-20T07:21:04.418Z,25.00
2023-10-20T07:23:51.622Z,23.50
2023-10-20T07:26:39.321Z,27.80
2023-10-20T07:29:27.736Z,37.00
2023-10-20T07:32:16.146Z,32.00
2023-10-20T07:35:04.511Z,30.80
2023-10-20T07:37:51.900Z,34.90
2023-10-20T07:40:39.616Z,31.70
2023-10-20T07:43:26.774Z,25.80
2023-10-20T07:46:17.610Z,27.90
2023-10-20T07:49:14.777Z,24.70
2023-10-20T07:52:03.346Z,26.80
2023-10-20T07:54:50.335Z,31.50
2023-10-20T07:57:37.947Z,28.60
2023-10-20T08:00:25.522Z,29.10
2023-10-20T08:03:13.766Z,31.80
2023-10-20T08:06:04.409Z,38.40
2023-10-20T08:08:52.301Z,34.00
2023-10-20T08:11:40.846Z,32.30
2023-10-20T08:14:28.324Z,27.80
2023-10-20T08:17:15.913Z,26.80
2023-10-20T08:20:08.594Z,25.90
2023-10-20T08:22:55.996Z,25.90
2023-10-20T08:25:43.328Z,29.30
2023-10-20T08:28:31.096Z,26.50
2023-10-20T08:31:18.907Z,26.10
2023-10-20T08:34:06.319Z,25.30
2023-10-20T08:36:53.882Z,22.30
2023-10-20T08:39:41.300Z,21.10
2023-10-20T08:42:30.337Z,19.60
2023-10-20T08:45:17.398Z,18.40
2023-10-20T08:48:04.981Z,20.80
2023-10-20T08:50:52.809Z,17.60
2023-10-20T08:53:41.036Z,16.60
2023-10-20T08:56:28.996Z,17.10
2023-10-20T08:59:16.359Z,18.00
2023-10-20T09:02:04.286Z,17.10
2023-10-20T09:04:52.620Z,20.20
2023-10-20T09:07:40.416Z,19.20
2023-10-20T09:10:27.810Z,19.60
2023-10-20T09:13:15.049Z,23.50
2023-10-20T09:16:04.139Z,30.90
2023-10-20T09:18:54.551Z,23.60
2023-10-20T09:21:45.734Z,22.70
2023-10-20T09:24:33.118Z,22.80
2023-10-20T09:30:37.294Z,23.40
2023-10-20T09:33:25.993Z,28.00
2023-10-20T09:36:13.992Z,23.50
2023-10-20T09:39:04.107Z,22.30
2023-10-20T09:41:52.264Z,21.10
2023-10-20T09:44:45.013Z,23.50
2023-10-20T09:47:34.024Z,23.00
2023-10-20T09:50:24.503Z,20.00
2023-10-20T09:53:13.493Z,22.90
2023-10-20T09:56:02.418Z,27.90
2023-10-20T09:58:56.743Z,25.80
2023-10-20T10:01:48.897Z,25.50
2023-10-20T10:04:43.035Z,23.20
2023-10-20T10:07:34.760Z,20.80
2023-10-20T10:10:23.863Z,23.20
2023-10-20T10:13:13.477Z,23.70
2023-10-20T10:16:10.514Z,16.80
2023-10-20T10:19:11.403Z,19.70
2023-10-20T10:22:02.814Z,21.50
2023-10-20T10:24:54.547Z,25.60
2023-10-20T10:27:43.012Z,19.30
2023-10-20T10:30:31.121Z,19.90
2023-10-20T10:33:23.694Z,21.00
2023-10-20T10:36:12.727Z,21.20
2023-10-20T10:39:00.717Z,24.40
2023-10-20T10:41:49.657Z,20.50
2023-10-20T10:44:40.452Z,19.70
2023-10-20T10:47:34.415Z,21.40
2023-10-20T10:50:24.321Z,21.50
2023-10-20T10:53:12.556Z,17.20
2023-10-20T10:56:00.757Z,17.80
2023-10-20T10:58:48.748Z,15.30
2023-10-20T11:01:42.493Z,13.20
2023-10-20T11:04:32.575Z,12.00
2023-10-20T11:07:22.757Z,12.40
2023-10-20T11:10:11.096Z,11.40
2023-10-20T11:12:59.574Z,11.20
2023-10-20T11:15:48.306Z,16.00
2023-10-20T11:18:39.259Z,16.10
2023-10-20T11:21:28.012Z,12.40
2023-10-20T11:24:27.757Z,14.60
2023-10-20T11:27:17.479Z,14.00
2023-10-20T11:30:07.245Z,11.70
2023-10-20T11:32:55.349Z,16.20
2023-10-20T11:35:43.492Z,26.50
2023-10-20T11:38:30.849Z,25.20
2023-10-20T11:41:18.176Z,26.30
2023-10-20T11:44:05.781Z,29.00
2023-10-20T11:46:54.978Z,17.30
2023-10-20T11:49:43.433Z,19.30
2023-10-20T11:52:32.778Z,19.10
2023-10-20T11:55:22.372Z,19.60
2023-10-20T11:58:12.905Z,17.80
2023-10-20T12:01:01.466Z,19.60
2023-10-20T12:03:49.743Z,20.20
2023-10-20T12:06:38.461Z,20.90
2023-10-20T12:09:27.053Z,25.00
2023-10-20T12:12:16.708Z,19.60
2023-10-20T12:15:05.523Z,24.70
2023-10-20T12:17:53.762Z,22.70
2023-10-20T12:20:42.861Z,18.50
2023-10-20T12:23:30.904Z,18.20
2023-10-20T12:26:22.924Z,20.10
2023-10-20T12:29:11.508Z,22.10
2023-10-20T12:32:03.031Z,16.50
2023-10-20T12:34:50.742Z,26.80
2023-10-20T12:37:40.587Z,15.80
2023-10-20T12:40:28.977Z,16.90
2023-10-20T12:43:17.785Z,19.40
2023-10-20T12:46:06.936Z,21.70
2023-10-20T12:48:56.842Z,22.30
2023-10-20T12:51:45.398Z,19.70
2023-10-20T12:54:33.910Z,17.00
2023-10-20T12:57:22.800Z,15.30
2023-10-20T13:00:12.056Z,15.60
2023-10-20T13:03:01.038Z,16.40
2023-10-20T13:05:50.116Z,12.60
2023-10-20T13:08:39.280Z,16.20
2023-10-20T13:11:28.141Z,14.90
2023-10-20T13:14:16.666Z,15.30
2023-10-20T13:17:04.904Z,15.90
2023-10-20T13:19:55.050Z,21.00
2023-10-20T13:22:42.521Z,20.20
2023-10-20T13:25:29.387Z,19.10
2023-10-20T13:28:16.980Z,21.80
2023-10-20T13:31:13.001Z,19.10
2023-10-20T13:34:03.954Z,17.20
2023-10-20T13:36:51.522Z,14.80
2023-10-20T13:39:39.110Z,20.20
2023-10-20T13:42:26.997Z,11.90
2023-10-20T13:45:14.324Z,17.60
2023-10-20T13:48:02.242Z,14.60
2023-10-20T13:50:51.531Z,19.00
2023-10-20T13:53:39.242Z,16.80
2023-10-20T13:56:28.331Z,13.20
2023-10-20T13:59:17.252Z,11.70
2023-10-20T14:02:05.168Z,15.60
2023-10-20T14:04:52.713Z,13.00
2023-10-20T14:07:40.613Z,11.00
2023-10-20T14:10:30.700Z,10.40
2023-10-20T14:13:21.289Z,11.20
2023-10-20T14:16:10.528Z,11.30
2023-10-20T14:18:59.731Z,10.40
2023-10-20T14:21:48.734Z,17.80
2023-10-20T14:24:37.729Z,10.50
2023-10-20T14:27:26.882Z,11.40
2023-10-20T14:30:14.945Z,16.00
2023-10-20T14:33:03.722Z,12.10
2023-10-20T14:35:55.832Z,15.00
2023-10-20T14:38:44.821Z,13.10
2023-10-20T14:41:33.913Z,18.40
2023-10-20T14:44:21.633Z,17.70
2023-10-20T14:47:09.769Z,13.30
2023-10-20T14:49:59.559Z,14.10
2023-10-20T14:52:47.355Z,13.00
2023-10-20T14:55:36.469Z,15.80
2023-10-20T14:58:24.587Z,15.80
2023-10-20T15:01:13.402Z,14.70
2023-10-20T15:04:14.059Z,15.00
2023-10-20T15:07:10.300Z,20.50
2023-10-20T15:09:59.315Z,24.00
2023-10-20T15:12:47.462Z,20.80
2023-10-20T15:15:36.338Z,21.00
2023-10-20T15:18:23.407Z,25.60
2023-10-20T15:21:10.714Z,38.10
2023-10-20T15:23:58.300Z,27.10
2023-10-20T15:26:47.080Z,27.40
2023-10-20T15:29:34.353Z,24.80
2023-10-20T15:32:22.033Z,29.10
2023-10-20T15:35:10.790Z,28.10
2023-10-20T15:37:58.408Z,28.90
2023-10-20T15:40:55.019Z,29.70
2023-10-20T15:43:42.552Z,28.80
2023-10-20T15:46:29.806Z,27.80
2023-10-20T15:49:17.261Z,34.90
2023-10-20T15:52:04.795Z,38.00
2023-10-20T15:54:53.322Z,33.80
2023-10-20T15:57:40.772Z,30.60
2023-10-20T16:00:28.230Z,30.20
2023-10-20T16:03:20.679Z,33.20
2023-10-20T16:06:12.286Z,25.40
2023-10-20T16:09:00.180Z,28.30
2023-10-20T16:11:48.184Z,27.90
2023-10-20T16:14:36.130Z,28.10
2023-10-20T16:17:22.710Z,22.80
2023-10-20T16:20:10.344Z,25.40
2023-10-20T16:22:57.421Z,25.90
2023-10-20T16:25:44.706Z,24.40
2023-10-20T16:28:32.074Z,25.10
2023-10-20T16:31:19.396Z,23.80
2023-10-20T16:34:06.602Z,21.20
2023-10-20T16:36:54.479Z,20.70
2023-10-20T16:39:43.126Z,18.40
2023-10-20T16:42:31.047Z,20.40
2023-10-20T16:45:18.985Z,19.10
2023-10-20T16:48:08.407Z,21.10
2023-10-20T16:50:59.468Z,31.20
2023-10-20T16:53:49.176Z,50.50
2023-10-20T16:56:37.908Z,83.80
2023-10-20T16:59:27.464Z,217.00
2023-10-20T17:02:17.224Z,183.90
2023-10-20T17:05:07.014Z,335.90
2023-10-20T17:07:55.455Z,397.60
2023-10-20T17:10:44.111Z,389.30
2023-10-20T17:13:31.988Z,347.40
2023-10-20T17:16:20.164Z,392.70
2023-10-20T17:19:07.480Z,356.90
2023-10-20T17:21:54.874Z,306.30
2023-10-20T17:24:43.763Z,241.10
2023-10-20T17:27:30.826Z,157.50
2023-10-20T17:30:18.340Z,128.40
2023-10-20T17:33:05.980Z,137.30
2023-10-20T17:35:54.062Z,137.70
2023-10-20T17:38:41.417Z,112.90
2023-10-20T17:41:28.759Z,147.70
2023-10-20T17:44:16.926Z,123.80
2023-10-20T17:47:04.829Z,75.90
2023-10-20T17:49:52.372Z,98.60
2023-10-20T17:52:39.758Z,59.10
2023-10-20T17:55:26.907Z,57.30
2023-10-20T17:58:14.151Z,36.80
2023-10-20T18:01:08.952Z,30.70
2023-10-20T18:03:56.798Z,32.10
2023-10-20T18:06:44.852Z,31.00
2023-10-20T18:09:31.993Z,29.70
2023-10-20T18:12:18.789Z,25.00
2023-10-20T18:15:06.899Z,21.70
2023-10-20T18:17:54.752Z,20.80
2023-10-20T18:20:42.034Z,19.90
2023-10-20T18:23:29.831Z,27.40
2023-10-20T18:26:18.111Z,25.10
2023-10-20T18:29:05.763Z,19.90
2023-10-20T18:31:52.713Z,20.80
2023-10-20T18:34:40.525Z,19.50
2023-10-20T18:37:28.123Z,22.90
2023-10-20T18:40:15.820Z,23.60
2023-10-20T18:43:03.287Z,17.70
2023-10-20T18:45:53.939Z,18.70
2023-10-20T18:48:41.752Z,24.50
2023-10-20T18:51:30.158Z,19.30
2023-10-20T18:54:17.944Z,22.20
2023-10-20T18:57:05.537Z,24.30
2023-10-20T18:59:52.718Z,17.60
2023-10-20T19:02:41.488Z,17.90
2023-10-20T19:05:30.508Z,20.70
2023-10-20T19:08:19.319Z,29.70
2023-10-20T19:11:09.334Z,27.70
2023-10-20T19:13:57.381Z,40.20
2023-10-20T19:16:44.808Z,36.30
2023-10-20T19:19:31.971Z,42.90
2023-10-20T19:22:19.361Z,65.50
2023-10-20T19:25:07.190Z,88.90
2023-10-20T19:27:54.725Z,140.30
2023-10-20T19:30:41.604Z,251.80
2023-10-20T19:33:29.145Z,261.80
2023-10-20T19:36:16.512Z,285.80
2023-10-20T19:39:04.777Z,253.90
2023-10-20T19:41:52.185Z,239.50
2023-10-20T19:44:39.336Z,235.90
2023-10-20T19:47:27.060Z,269.10
2023-10-20T19:50:14.342Z,263.90
2023-10-20T19:53:01.693Z,239.90
2023-10-20T19:55:48.769Z,239.40
2023-10-20T19:58:36.067Z,217.40
2023-10-20T20:01:24.570Z,212.70
2023-10-20T20:04:11.790Z,187.20
2023-10-20T20:06:59.607Z,171.10
2023-10-20T20:09:46.703Z,115.10
2023-10-20T20:12:33.902Z,61.70
2023-10-20T20:15:24.265Z,47.10
2023-10-20T20:18:11.936Z,40.80
2023-10-20T20:20:59.304Z,35.80
2023-10-20T20:23:46.877Z,28.10
2023-10-20T20:26:34.217Z,24.50
2023-10-20T20:29:21.705Z,31.50
2023-10-20T20:32:08.832Z,25.50
2023-10-20T20:34:56.392Z,36.50
2023-10-20T20:37:43.773Z,38.20
2023-10-20T20:40:31.210Z,42.80
2023-10-20T20:43:19.054Z,39.70
2023-10-20T20:46:06.349Z,45.40
2023-10-20T20:48:54.370Z,51.90
2023-10-20T20:51:42.512Z,57.50
2023-10-20T20:54:29.539Z,44.40
2023-10-20T20:57:17.814Z,38.70
2023-10-20T21:00:07.017Z,35.90
2023-10-20T21:02:56.097Z,37.80
2023-10-20T21:05:45.257Z,20.60
2023-10-20T21:08:32.805Z,29.40
2023-10-20T21:11:20.818Z,22.20
2023-10-20T21:14:07.754Z,20.00
2023-10-20T21:16:54.913Z,27.50
2023-10-20T21:19:41.693Z,23.50
2023-10-20T21:22:29.886Z,27.80
2023-10-20T21:25:19.551Z,26.10
2023-10-20T21:28:08.557Z,28.50
2023-10-20T21:30:57.273Z,28.20
2023-10-20T21:33:45.592Z,27.50
2023-10-20T21:36:33.728Z,22.90
2023-10-20T21:39:24.912Z,23.30
2023-10-20T21:42:13.289Z,24.80
2023-10-20T21:45:05.523Z,29.90
2023-10-20T21:50:42.830Z,20.80
2023-10-20T21:53:33.288Z,22.90
2023-10-20T21:56:24.675Z,23.20
2023-10-20T21:59:14.548Z,17.40
2023-10-20T22:02:09.669Z,20.90
2023-10-20T22:04:59.979Z,13.30
2023-10-20T22:07:49.459Z,21.40
2023-10-20T22:10:37.802Z,15.90
2023-10-20T22:13:25.995Z,19.50
2023-10-20T22:16:13.954Z,17.10
2023-10-20T22:19:04.495Z,16.70
2023-10-20T22:21:52.883Z,17.30
2023-10-20T22:24:45.785Z,18.20
2023-10-20T22:31:15.732Z,18.30
2023-10-20T22:38:12.458Z,22.60
2023-10-20T22:41:21.287Z,25.00
2023-10-20T22:44:22.408Z,24.20
2023-10-20T22:47:49.799Z,22.80
2023-10-20T22:54:13.672Z,18.60
2023-10-20T22:57:30.015Z,14.00
2023-10-20T23:00:30.893Z,15.60
2023-10-20T23:03:28.692Z,14.20
2023-10-20T23:06:44.220Z,15.30
2023-10-20T23:09:42.049Z,16.80
2023-10-20T23:12:29.054Z,21.00
2023-10-20T23:15:15.850Z,22.60
2023-10-20T23:18:04.179Z,26.90
2023-10-20T23:20:55.683Z,21.10
2023-10-20T23:23:44.333Z,25.10
2023-10-20T23:26:31.248Z,21.40
2023-10-20T23:29:19.078Z,24.50
2023-10-20T23:32:06.565Z,19.70
2023-10-20T23:34:54.724Z,28.60
2023-10-20T23:37:41.776Z,20.20
2023-10-20T23:40:28.735Z,19.50
2023-10-20T23:43:16.073Z,21.70
2023-10-20T23:46:03.408Z,27.70
2023-10-20T23:48:50.882Z,21.20
2023-10-20T23:51:38.123Z,20.70
2023-10-20T23:54:24.996Z,23.70
2023-10-20T23:57:12.728Z,21.00
2023-10-20T23:59:59.864Z,18.30
